Wetterdaten: Woche 19.11.18 - 25.11.18 (KW47)
Datum Zeit Temp. Aussen Temp. o. S. +5cm Feuchte Auss Luftdruck Regen Sonnenschein Regendauer Solar Windben Empfang
19.11.2018 00:00 1,2 C 0,3 C -0,2 C 86 % 1023,0 hPa 0,0 l/m 0,00 h 0,00 h 0 W/m 6,6 km/h (2 Bft) 97,52 %
19.11.2018 01:00 0,9 C 0,1 C -0,5 C 88 % 1022,4 hPa 0,0 l/m 0,00 h 0,00 h 0 W/m 5,2 km/h (1 Bft) 95,79 %
19.11.2018 02:00 1,2 C 0,8 C -0,1 C 91 % 1021,6 hPa 0,0 l/m 0,00 h 0,00 h 0 W/m 6,1 km/h (2 Bft) 99,71 %
19.11.2018 03:00 1,8 C 1,6 C 0,8 C 93 % 1021,2 hPa 0,0 l/m 0,00 h 0,00 h 0 W/m 4,0 km/h (1 Bft) 97,72 %
19.11.2018 04:00 2,5 C 2,6 C 1,8 C 94 % 1020,5 hPa 0,0 l/m 0,00 h 0,00 h 0 W/m 1,9 km/h (1 Bft) 97,07 %
19.11.2018 05:00 3,5 C 3,6 C 2,6 C 95 % 1020,0 hPa 0,0 l/m 0,00 h 0,00 h 0 W/m 9,0 km/h (2 Bft) 99,50 %
19.11.2018 06:00 4,2 C 3,9 C 2,8 C 93 % 1019,3 hPa 0,0 l/m 0,00 h 0,00 h 0 W/m 14,2 km/h (3 Bft) 96,17 %
19.11.2018 07:00 4,2 C 3,9 C 2,8 C 90 % 1018,8 hPa 0,0 l/m 0,00 h 0,00 h 0 W/m 14,7 km/h (3 Bft) 97,22 %
19.11.2018 08:00 4,7 C 4,5 C 3,4 C 89 % 1018,6 hPa 0,0 l/m 0,00 h 0,00 h 18 W/m 18,5 km/h (3 Bft) 98,79 %
19.11.2018 09:00 5,4 C 5,7 C 4,5 C 87 % 1018,2 hPa 0,0 l/m 0,17 h 0,00 h 75 W/m 20,5 km/h (4 Bft) 96,30 %
19.11.2018 10:00 5,9 C 6,3 C 4,8 C 84 % 1017,8 hPa 0,0 l/m 0,23 h 0,07 h 87 W/m 18,3 km/h (3 Bft) 98,58 %
19.11.2018 11:00 5,7 C 5,5 C 4,7 C 82 % 1017,1 hPa 0,0 l/m 0,00 h 0,07 h 64 W/m 20,3 km/h (4 Bft) 97,01 %
19.11.2018 12:00 6,8 C 9,2 C 6,3 C 81 % 1016,1 hPa 0,0 l/m 0,57 h 0,30 h 239 W/m 18,8 km/h (3 Bft) 96,25 %
19.11.2018 13:00 6,2 C 8,2 C 5,1 C 82 % 1015,3 hPa 0,0 l/m 0,60 h 0,00 h 204 W/m 18,1 km/h (3 Bft) 98,73 %
19.11.2018 14:00 6,2 C 6,0 C 5,3 C 77 % 1014,9 hPa 0,0 l/m 0,00 h 0,00 h 87 W/m 19,6 km/h (3 Bft) 96,32 %
19.11.2018 15:00 5,6 C 5,1 C 4,6 C 78 % 1014,5 hPa 0,0 l/m 0,00 h 0,10 h 37 W/m 22,2 km/h (4 Bft) 97,00 %
19.11.2018 16:00 5,3 C 4,8 C 4,2 C 79 % 1014,1 hPa 0,0 l/m 0,00 h 0,00 h 7 W/m 16,3 km/h (3 Bft) 99,53 %
19.11.2018 17:00 4,3 C 3,3 C 3,3 C 85 % 1014,0 hPa 0,0 l/m 0,00 h 0,00 h 0 W/m 19,8 km/h (4 Bft) 96,16 %
19.11.2018 18:00 3,2 C 2,8 C 2,3 C 89 % 1013,3 hPa 0,0 l/m 0,00 h 0,00 h 0 W/m 17,4 km/h (3 Bft) 96,50 %
19.11.2018 19:00 3,1 C 2,8 C 2,2 C 87 % 1012,9 hPa 0,0 l/m 0,00 h 0,00 h 0 W/m 19,9 km/h (4 Bft) 99,36 %
19.11.2018 20:00 3,3 C 3,0 C 2,4 C 85 % 1012,6 hPa 0,0 l/m 0,00 h 0,00 h 0 W/m 18,7 km/h (3 Bft) 96,01 %
19.11.2018 21:00 3,6 C 3,2 C 2,8 C 82 % 1012,4 hPa 0,0 l/m 0,00 h 0,00 h 0 W/m 20,5 km/h (4 Bft) 97,79 %
19.11.2018 22:00 3,5 C 3,0 C 2,8 C 83 % 1012,3 hPa 0,0 l/m 0,00 h 0,00 h 0 W/m 18,0 km/h (3 Bft) 97,79 %
19.11.2018 23:00 3,2 C 2,4 C 2,1 C 83 % 1011,8 hPa 0,0 l/m 0,00 h 0,00 h 0 W/m 16,5 km/h (3 Bft) 96,36 %
20.11.2018 00:00 2,5 C 1,8 C 1,3 C 84 % 1011,4 hPa 0,0 l/m 0,00 h 0,00 h 0 W/m 12,3 km/h (3 Bft) 99,78 %
20.11.2018 01:00 2,6 C 2,2 C 1,7 C 83 % 1010,8 hPa 0,0 l/m 0,00 h 0,00 h 0 W/m 17,8 km/h (3 Bft) 95,66 %
20.11.2018 02:00 2,4 C 1,8 C 1,5 C 79 % 1010,3 hPa 0,0 l/m 0,00 h 0,00 h 0 W/m 18,6 km/h (3 Bft) 97,51 %
20.11.2018 03:00 2,0 C 1,5 C 1,1 C 79 % 1009,6 hPa 0,0 l/m 0,00 h 0,00 h 0 W/m 16,1 km/h (3 Bft) 99,01 %
20.11.2018 04:00 2,0 C 1,6 C 1,3 C 81 % 1009,1 hPa 0,0 l/m 0,00 h 0,00 h 0 W/m 16,7 km/h (3 Bft) 97,41 %
20.11.2018 05:00 2,3 C 2,0 C 1,7 C 81 % 1008,5 hPa 0,0 l/m 0,00 h 0,00 h 0 W/m 16,1 km/h (3 Bft) 97,01 %
20.11.2018 06:00 2,6 C 2,2 C 1,7 C 81 % 1008,2 hPa 0,0 l/m 0,00 h 0,00 h 0 W/m 12,1 km/h (2 Bft) 97,86 %
20.11.2018 07:00 2,6 C 2,2 C 1,7 C 81 % 1007,9 hPa 0,0 l/m 0,00 h 0,00 h 0 W/m 12,3 km/h (3 Bft) 96,87 %
20.11.2018 08:00 2,6 C 2,2 C 1,8 C 82 % 1007,9 hPa 0,0 l/m 0,00 h 0,00 h 10 W/m 12,4 km/h (3 Bft) 98,36 %
20.11.2018 09:00 2,8 C 2,5 C 2,2 C 81 % 1007,5 hPa 0,0 l/m 0,00 h 0,00 h 23 W/m 13,6 km/h (3 Bft) 95,73 %
20.11.2018 10:00 3,1 C 2,9 C 2,5 C 81 % 1007,4 hPa 0,0 l/m 0,00 h 0,00 h 40 W/m 13,1 km/h (3 Bft) 98,01 %
20.11.2018 11:00 3,5 C 3,7 C 3,1 C 81 % 1007,1 hPa 0,0 l/m 0,00 h 0,00 h 72 W/m 11,9 km/h (2 Bft) 99,07 %
20.11.2018 12:00 4,4 C 4,9 C 4,1 C 77 % 1006,4 hPa 0,0 l/m 0,00 h 0,00 h 118 W/m 16,8 km/h (3 Bft) 94,66 %
20.11.2018 13:00 4,9 C 4,9 C 4,3 C 75 % 1006,0 hPa 0,0 l/m 0,00 h 0,00 h 88 W/m 15,2 km/h (3 Bft) 98,79 %
20.11.2018 14:00 4,5 C 4,1 C 3,8 C 77 % 1005,8 hPa 0,0 l/m 0,00 h 0,00 h 48 W/m 17,3 km/h (3 Bft) 98,79 %
20.11.2018 15:00 4,1 C 3,9 C 3,3 C 80 % 1005,4 hPa 0,0 l/m 0,00 h 0,00 h 23 W/m 14,9 km/h (3 Bft) 95,37 %
20.11.2018 16:00 4,0 C 3,5 C 3,3 C 81 % 1005,4 hPa 0,0 l/m 0,00 h 0,00 h 7 W/m 13,5 km/h (3 Bft) 98,15 %
20.11.2018 17:00 4,3 C 3,9 C 3,3 C 79 % 1005,5 hPa 0,0 l/m 0,00 h 0,00 h 0 W/m 13,4 km/h (3 Bft) 98,43 %
20.11.2018 18:00 4,6 C 3,9 C 3,3 C 76 % 1005,8 hPa 0,0 l/m 0,00 h 0,00 h 0 W/m 17,7 km/h (3 Bft) 96,78 %
20.11.2018 19:00 4,5 C 3,9 C 3,3 C 77 % 1006,2 hPa 0,0 l/m 0,00 h 0,00 h 0 W/m 20,4 km/h (4 Bft) 97,79 %
20.11.2018 20:00 4,3 C 3,9 C 3,3 C 79 % 1006,5 hPa 0,0 l/m 0,00 h 0,00 h 0 W/m 17,7 km/h (3 Bft) 96,79 %
20.11.2018 21:00 4,1 C 3,4 C 2,8 C 80 % 1007,0 hPa 0,0 l/m 0,00 h 0,00 h 0 W/m 16,7 km/h (3 Bft) 97,51 %
20.11.2018 22:00 3,2 C 2,4 C 1,9 C 83 % 1007,5 hPa 0,0 l/m 0,00 h 0,00 h 0 W/m 11,1 km/h (2 Bft) 99,72 %
20.11.2018 23:00 3,3 C 2,9 C 2,3 C 84 % 1008,0 hPa 0,0 l/m 0,00 h 0,00 h 0 W/m 13,3 km/h (3 Bft) 95,07 %
21.11.2018 00:00 3,8 C 3,3 C 2,8 C 83 % 1007,9 hPa 0,0 l/m 0,00 h 0,00 h 0 W/m 14,0 km/h (3 Bft) 97,87 %
21.11.2018 01:00 3,9 C 3,3 C 2,7 C 82 % 1008,1 hPa 0,0 l/m 0,00 h 0,00 h 0 W/m 14,8 km/h (3 Bft) 99,07 %
21.11.2018 02:00 3,5 C 2,8 C 2,2 C 83 % 1008,8 hPa 0,0 l/m 0,00 h 0,00 h 0 W/m 10,6 km/h (2 Bft) 96,30 %
21.11.2018 03:00 2,6 C 0,5 C 0,9 C 83 % 1009,6 hPa 0,0 l/m 0,00 h 0,00 h 0 W/m 5,0 km/h (1 Bft) 96,72 %
21.11.2018 04:00 0,9 C -0,5 C 0,1 C 87 % 1010,2 hPa 0,0 l/m 0,00 h 0,00 h 0 W/m 6,6 km/h (2 Bft) 97,48 %
21.11.2018 05:00 0,0 C -1,2 C -0,5 C 90 % 1010,9 hPa 0,0 l/m 0,00 h 0,00 h 0 W/m 2,6 km/h (1 Bft) 98,07 %
21.11.2018 06:00 -0,4 C -1,4 C -0,7 C 91 % 1011,5 hPa 0,0 l/m 0,00 h 0,00 h 0 W/m 2,3 km/h (1 Bft) 96,50 %
21.11.2018 07:00 -0,8 C -1,8 C -1,2 C 92 % 1012,1 hPa 0,0 l/m 0,00 h 0,00 h 2 W/m 2,9 km/h (1 Bft) 98,35 %
21.11.2018 08:00 -1,0 C -1,5 C -1,0 C 93 % 1012,8 hPa 0,0 l/m 0,00 h 0,00 h 14 W/m 1,1 km/h (0 Bft) 95,90 %
21.11.2018 09:00 -0,3 C 2,2 C -0,1 C 94 % 1013,5 hPa 0,0 l/m 0,60 h 0,00 h 94 W/m 3,3 km/h (1 Bft) 97,94 %
21.11.2018 10:00 2,1 C 7,5 C 1,4 C 95 % 1014,3 hPa 0,0 l/m 1,00 h 0,00 h 197 W/m 6,6 km/h (2 Bft) 97,58 %
21.11.2018 11:00 5,0 C 9,9 C 3,0 C 86 % 1014,6 hPa 0,0 l/m 1,00 h 0,00 h 251 W/m 8,6 km/h (2 Bft) 98,43 %
21.11.2018 12:00 5,2 C 6,1 C 4,0 C 80 % 1014,8 hPa 0,0 l/m 0,37 h 0,00 h 176 W/m 11,1 km/h (2 Bft) 97,94 %
21.11.2018 13:00 5,8 C 8,3 C 4,7 C 77 % 1014,9 hPa 0,0 l/m 0,93 h 0,00 h 232 W/m 12,7 km/h (3 Bft) 95,57 %
21.11.2018 14:00 5,4 C 5,1 C 3,9 C 78 % 1014,9 hPa 0,0 l/m 0,00 h 0,00 h 71 W/m 6,9 km/h (2 Bft) 98,65 %
21.11.2018 15:00 4,8 C 4,3 C 3,7 C 80 % 1015,0 hPa 0,0 l/m 0,00 h 0,00 h 41 W/m 7,0 km/h (2 Bft) 98,29 %
21.11.2018 16:00 4,2 C 3,4 C 2,9 C 82 % 1015,4 hPa 0,0 l/m 0,00 h 0,00 h 12 W/m 7,9 km/h (2 Bft) 94,57 %
21.11.2018 17:00 3,5 C 2,5 C 2,1 C 84 % 1015,7 hPa 0,0 l/m 0,00 h 0,00 h 0 W/m 6,9 km/h (2 Bft) 99,30 %
21.11.2018 18:00 2,8 C 2,2 C 1,9 C 86 % 1016,2 hPa 0,0 l/m 0,00 h 0,00 h 0 W/m 7,7 km/h (2 Bft) 98,69 %
21.11.2018 19:00 3,0 C 2,8 C 2,2 C 86 % 1016,6 hPa 0,0 l/m 0,00 h 0,00 h 0 W/m 11,0 km/h (2 Bft) 95,56 %
21.11.2018 20:00 3,0 C 2,7 C 2,2 C 86 % 1017,1 hPa 0,0 l/m 0,00 h 0,00 h 0 W/m 11,5 km/h (2 Bft) 97,00 %
21.11.2018 21:00 3,0 C 2,8 C 2,2 C 86 % 1017,1 hPa 0,0 l/m 0,00 h 0,00 h 0 W/m 9,5 km/h (2 Bft) 97,51 %
21.11.2018 22:00 3,2 C 2,8 C 2,2 C 86 % 1017,1 hPa 0,0 l/m 0,00 h 0,00 h 0 W/m 8,6 km/h (2 Bft) 97,37 %
21.11.2018 23:00 3,5 C 3,3 C 2,8 C 85 % 1017,2 hPa 0,0 l/m 0,00 h 0,00 h 0 W/m 10,1 km/h (2 Bft) 97,72 %
22.11.2018 00:00 3,7 C 3,3 C 2,8 C 84 % 1017,3 hPa 0,0 l/m 0,00 h 0,00 h 0 W/m 10,1 km/h (2 Bft) 96,60 %
22.11.2018 01:00 3,9 C 3,2 C 2,8 C 83 % 1017,3 hPa 0,0 l/m 0,00 h 0,00 h 0 W/m 6,3 km/h (2 Bft) 98,36 %
22.11.2018 02:00 3,6 C 2,7 C 2,8 C 85 % 1017,3 hPa 0,0 l/m 0,00 h 0,00 h 0 W/m 5,3 km/h (1 Bft) 98,72 %
22.11.2018 03:00 3,1 C 2,4 C 2,4 C 88 % 1017,1 hPa 0,0 l/m 0,00 h 0,00 h 0 W/m 5,9 km/h (2 Bft) 95,44 %
22.11.2018 04:00 3,1 C 2,8 C 2,6 C 89 % 1017,1 hPa 0,0 l/m 0,00 h 0,00 h 0 W/m 5,4 km/h (1 Bft) 98,48 %
22.11.2018 05:00 3,1 C 2,8 C 2,5 C 90 % 1017,0 hPa 0,0 l/m 0,00 h 0,00 h 0 W/m 5,7 km/h (1 Bft) 97,73 %
22.11.2018 06:00 3,1 C 2,8 C 2,8 C 91 % 1016,8 hPa 0,0 l/m 0,00 h 0,00 h 0 W/m 5,2 km/h (1 Bft) 97,31 %
22.11.2018 07:00 3,2 C 2,8 C 2,8 C 91 % 1016,8 hPa 0,0 l/m 0,00 h 0,00 h 0 W/m 4,9 km/h (1 Bft) 96,06 %
22.11.2018 08:00 3,3 C 3,0 C 2,8 C 91 % 1016,9 hPa 0,0 l/m 0,00 h 0,00 h 16 W/m 5,0 km/h (1 Bft) 95,93 %
22.11.2018 09:00 4,0 C 4,5 C 3,7 C 88 % 1017,1 hPa 0,0 l/m 0,30 h 0,00 h 80 W/m 10,6 km/h (2 Bft) 97,59 %
22.11.2018 10:00 4,8 C 5,2 C 4,5 C 84 % 1017,2 hPa 0,0 l/m 0,43 h 0,00 h 110 W/m 15,7 km/h (3 Bft) 97,12 %
22.11.2018 11:00 5,1 C 5,2 C 4,6 C 82 % 1017,4 hPa 0,0 l/m 0,00 h 0,00 h 100 W/m 18,3 km/h (3 Bft) 96,05 %
22.11.2018 12:00 5,3 C 5,4 C 4,9 C 81 % 1017,3 hPa 0,0 l/m 0,00 h 0,00 h 104 W/m 20,3 km/h (4 Bft) 99,14 %
22.11.2018 13:00 5,5 C 5,7 C 5,0 C 81 % 1016,9 hPa 0,0 l/m 0,00 h 0,00 h 110 W/m 18,6 km/h (3 Bft) 97,63 %
22.11.2018 14:00 5,9 C 6,0 C 5,2 C 79 % 1016,6 hPa 0,0 l/m 0,10 h 0,00 h 102 W/m 14,6 km/h (3 Bft) 95,96 %
22.11.2018 15:00 6,1 C 6,3 C 5,4 C 79 % 1016,6 hPa 0,0 l/m 1,00 h 0,00 h 98 W/m 13,5 km/h (3 Bft) 99,27 %
22.11.2018 16:00 5,9 C 5,0 C 4,4 C 80 % 1016,5 hPa 0,0 l/m 0,43 h 0,00 h 24 W/m 6,0 km/h (2 Bft) 96,88 %
22.11.2018 17:00 4,8 C 3,1 C 2,7 C 82 % 1016,8 hPa 0,0 l/m 0,00 h 0,00 h 0 W/m 3,2 km/h (1 Bft) 96,52 %
22.11.2018 18:00 3,1 C 0,9 C 0,9 C 83 % 1017,0 hPa 0,0 l/m 0,00 h 0,00 h 0 W/m 0,9 km/h (0 Bft) 97,59 %
22.11.2018 19:00 2,8 C 2,8 C 1,9 C 88 % 1017,1 hPa 0,0 l/m 0,00 h 0,00 h 0 W/m 10,1 km/h (2 Bft) 99,19 %
22.11.2018 20:00 3,3 C 2,8 C 2,2 C 87 % 1017,2 hPa 0,0 l/m 0,00 h 0,00 h 0 W/m 14,2 km/h (3 Bft) 96,50 %
22.11.2018 21:00 2,9 C 2,3 C 1,7 C 87 % 1017,3 hPa 0,0 l/m 0,00 h 0,00 h 0 W/m 15,0 km/h (3 Bft) 96,69 %
22.11.2018 22:00 2,6 C 1,8 C 1,3 C 89 % 1017,3 hPa 0,0 l/m 0,00 h 0,00 h 0 W/m 13,2 km/h (3 Bft) 98,35 %
22.11.2018 23:00 2,2 C 1,5 C 1,1 C 90 % 1017,3 hPa 0,0 l/m 0,00 h 0,00 h 0 W/m 13,4 km/h (3 Bft) 96,24 %
23.11.2018 00:00 1,9 C 1,1 C 0,7 C 91 % 1017,3 hPa 0,0 l/m 0,00 h 0,00 h 0 W/m 12,6 km/h (3 Bft) 99,33 %
23.11.2018 01:00 1,4 C 0,6 C 0,1 C 91 % 1017,4 hPa 0,0 l/m 0,00 h 0,00 h 0 W/m 9,1 km/h (2 Bft) 96,57 %
23.11.2018 02:00 1,0 C 0,6 C 0,0 C 92 % 1017,5 hPa 0,0 l/m 0,00 h 0,00 h 0 W/m 11,6 km/h (2 Bft) 96,12 %
23.11.2018 03:00 0,9 C 0,5 C 0,0 C 92 % 1017,3 hPa 0,0 l/m 0,00 h 0,00 h 0 W/m 11,7 km/h (2 Bft) 99,74 %
23.11.2018 04:00 0,7 C 0,0 C -0,6 C 92 % 1017,1 hPa 0,0 l/m 0,00 h 0,00 h 0 W/m 7,7 km/h (2 Bft) 96,91 %
23.11.2018 05:00 0,5 C 0,1 C -0,5 C 93 % 1017,1 hPa 0,0 l/m 0,00 h 0,00 h 0 W/m 9,3 km/h (2 Bft) 96,72 %
23.11.2018 06:00 0,7 C 0,6 C 0,0 C 93 % 1016,8 hPa 0,0 l/m 0,00 h 0,00 h 0 W/m 10,0 km/h (2 Bft) 98,10 %
23.11.2018 07:00 0,9 C 0,6 C 0,0 C 93 % 1016,7 hPa 0,0 l/m 0,00 h 0,00 h 0 W/m 10,9 km/h (2 Bft) 96,74 %
23.11.2018 08:00 0,9 C 0,7 C 0,2 C 93 % 1016,8 hPa 0,0 l/m 0,00 h 0,00 h 15 W/m 11,5 km/h (2 Bft) 98,58 %
23.11.2018 09:00 1,7 C 3,1 C 1,0 C 93 % 1016,8 hPa 0,0 l/m 0,57 h 0,00 h 91 W/m 12,1 km/h (2 Bft) 96,23 %
23.11.2018 10:00 3,4 C 5,2 C 2,7 C 90 % 1016,6 hPa 0,0 l/m 0,50 h 0,00 h 147 W/m 14,2 km/h (3 Bft) 95,73 %
23.11.2018 11:00 4,8 C 5,8 C 4,6 C 87 % 1016,2 hPa 0,0 l/m 0,23 h 0,00 h 137 W/m 12,0 km/h (2 Bft) 98,20 %
23.11.2018 12:00 6,8 C 11,0 C 5,9 C 83 % 1015,5 hPa 0,0 l/m 1,00 h 0,00 h 280 W/m 9,6 km/h (2 Bft) 97,47 %
23.11.2018 13:00 9,0 C 13,3 C 7,0 C 76 % 1014,9 hPa 0,0 l/m 1,00 h 0,00 h 294 W/m 11,5 km/h (2 Bft) 98,02 %
23.11.2018 14:00 9,5 C 12,0 C 6,9 C 75 % 1014,2 hPa 0,0 l/m 0,83 h 0,00 h 191 W/m 9,2 km/h (2 Bft) 95,94 %
23.11.2018 15:00 9,1 C 8,3 C 6,1 C 78 % 1013,6 hPa 0,0 l/m 0,00 h 0,00 h 30 W/m 5,5 km/h (1 Bft) 98,08 %
23.11.2018 16:00 7,8 C 5,3 C 4,0 C 80 % 1013,4 hPa 0,0 l/m 0,00 h 0,00 h 10 W/m 1,6 km/h (1 Bft) 98,86 %
23.11.2018 17:00 5,4 C 3,2 C 2,5 C 84 % 1013,2 hPa 0,0 l/m 0,00 h 0,00 h 0 W/m 0,6 km/h (0 Bft) 96,01 %
23.11.2018 18:00 4,1 C 2,6 C 1,9 C 87 % 1013,0 hPa 0,0 l/m 0,00 h 0,00 h 0 W/m 0,0 km/h (0 Bft) 95,43 %
23.11.2018 19:00 3,1 C 1,7 C 1,1 C 88 % 1012,5 hPa 0,0 l/m 0,00 h 0,00 h 0 W/m 0,0 km/h (0 Bft) 97,79 %
23.11.2018 20:00 2,5 C 1,3 C 0,8 C 90 % 1012,0 hPa 0,0 l/m 0,00 h 0,00 h 0 W/m 0,0 km/h (0 Bft) 99,22 %
23.11.2018 21:00 2,0 C 0,9 C 0,3 C 91 % 1011,7 hPa 0,0 l/m 0,00 h 0,00 h 0 W/m 0,0 km/h (0 Bft) 96,44 %
23.11.2018 22:00 1,3 C 0,1 C 0,0 C 92 % 1011,1 hPa 0,0 l/m 0,00 h 0,00 h 0 W/m 0,0 km/h (0 Bft) 96,16 %
23.11.2018 23:00 1,0 C -0,2 C -0,4 C 93 % 1010,8 hPa 0,0 l/m 0,00 h 0,00 h 0 W/m 0,0 km/h (0 Bft) 97,94 %
24.11.2018 00:00 0,4 C -0,6 C -0,6 C 93 % 1010,2 hPa 0,0 l/m 0,00 h 0,00 h 0 W/m 0,0 km/h (0 Bft) 96,45 %
24.11.2018 01:00 0,2 C -0,5 C -0,6 C 93 % 1009,8 hPa 0,0 l/m 0,00 h 0,00 h 0 W/m 0,0 km/h (0 Bft) 99,50 %
24.11.2018 02:00 0,1 C -0,7 C -0,6 C 94 % 1009,5 hPa 0,0 l/m 0,00 h 0,00 h 0 W/m 0,0 km/h (0 Bft) 96,43 %
24.11.2018 03:00 0,1 C -0,5 C -0,5 C 94 % 1009,0 hPa 0,0 l/m 0,00 h 0,00 h 0 W/m 0,0 km/h (0 Bft) 97,40 %
24.11.2018 04:00 1,0 C 0,6 C 0,3 C 96 % 1008,8 hPa 0,0 l/m 0,00 h 0,00 h 0 W/m 5,3 km/h (1 Bft) 97,71 %
24.11.2018 05:00 1,7 C 1,4 C 0,9 C 96 % 1008,6 hPa 0,0 l/m 0,00 h 0,00 h 0 W/m 4,6 km/h (1 Bft) 97,79 %
24.11.2018 06:00 2,1 C 2,0 C 1,4 C 96 % 1008,7 hPa 0,0 l/m 0,00 h 0,00 h 0 W/m 7,1 km/h (2 Bft) 94,44 %
24.11.2018 07:00 2,8 C 2,6 C 1,7 C 94 % 1008,5 hPa 0,0 l/m 0,00 h 0,00 h 0 W/m 6,4 km/h (2 Bft) 97,93 %
24.11.2018 08:00 3,2 C 2,8 C 2,2 C 93 % 1008,6 hPa 0,2 l/m 0,00 h 0,53 h 10 W/m 3,4 km/h (1 Bft) 97,87 %
24.11.2018 09:00 3,5 C 3,0 C 2,6 C 94 % 1008,7 hPa 0,0 l/m 0,00 h 0,33 h 29 W/m 5,3 km/h (1 Bft) 95,65 %
24.11.2018 10:00 4,0 C 3,3 C 3,0 C 94 % 1008,8 hPa 0,2 l/m 0,00 h 0,70 h 29 W/m 12,8 km/h (3 Bft) 98,79 %
24.11.2018 11:00 3,9 C 3,3 C 2,8 C 95 % 1008,8 hPa 0,8 l/m 0,00 h 0,97 h 28 W/m 5,7 km/h (1 Bft) 97,15 %
24.11.2018 12:00 4,0 C 3,3 C 2,8 C 96 % 1008,5 hPa 0,4 l/m 0,00 h 0,63 h 31 W/m 6,0 km/h (2 Bft) 97,31 %
24.11.2018 13:00 4,1 C 3,3 C 3,1 C 96 % 1008,4 hPa 0,2 l/m 0,00 h 0,60 h 23 W/m 2,7 km/h (1 Bft) 96,73 %
24.11.2018 14:00 4,2 C 3,5 C 3,3 C 97 % 1008,4 hPa 0,2 l/m 0,00 h 0,37 h 20 W/m 0,9 km/h (0 Bft) 98,29 %
24.11.2018 15:00 3,9 C 3,2 C 3,0 C 97 % 1008,5 hPa 0,2 l/m 0,00 h 0,13 h 6 W/m 0,0 km/h (0 Bft) 96,47 %
24.11.2018 16:00 3,7 C 3,3 C 2,9 C 97 % 1008,7 hPa 0,2 l/m 0,00 h 0,30 h 4 W/m 0,0 km/h (0 Bft) 96,01 %
24.11.2018 17:00 3,7 C 3,3 C 3,3 C 97 % 1008,7 hPa 0,2 l/m 0,00 h 0,30 h 0 W/m 0,0 km/h (0 Bft) 97,58 %
24.11.2018 18:00 3,8 C 3,3 C 3,3 C 97 % 1008,7 hPa 0,2 l/m 0,00 h 0,20 h 0 W/m 0,0 km/h (0 Bft) 98,38 %
24.11.2018 19:00 3,9 C 3,2 C 3,1 C 97 % 1008,8 hPa 0,6 l/m 0,00 h 0,67 h 0 W/m 2,0 km/h (1 Bft) 97,30 %
24.11.2018 20:00 3,6 C 2,8 C 2,8 C 97 % 1009,0 hPa 0,4 l/m 0,00 h 0,47 h 0 W/m 2,2 km/h (1 Bft) 96,80 %
24.11.2018 21:00 3,2 C 2,5 C 2,2 C 97 % 1009,1 hPa 0,0 l/m 0,00 h 0,00 h 0 W/m 4,1 km/h (1 Bft) 97,86 %
24.11.2018 22:00 3,1 C 2,3 C 2,2 C 97 % 1009,3 hPa 0,0 l/m 0,00 h 0,00 h 0 W/m 2,1 km/h (1 Bft) 98,72 %
24.11.2018 23:00 2,9 C 2,2 C 2,2 C 98 % 1009,4 hPa 0,0 l/m 0,00 h 0,00 h 0 W/m 3,6 km/h (1 Bft) 95,51 %
25.11.2018 00:00 2,8 C 2,2 C 2,2 C 98 % 1009,4 hPa 0,2 l/m 0,00 h 0,00 h 0 W/m 2,7 km/h (1 Bft) 97,33 %
25.11.2018 01:00 2,7 C 2,2 C 2,2 C 98 % 1009,4 hPa 0,0 l/m 0,00 h 0,00 h 0 W/m 3,3 km/h (1 Bft) 99,29 %
25.11.2018 02:00 2,7 C 2,2 C 2,0 C 98 % 1009,2 hPa 0,0 l/m 0,00 h 0,00 h 0 W/m 2,5 km/h (1 Bft) 96,15 %
25.11.2018 03:00 2,7 C 2,2 C 2,2 C 98 % 1009,0 hPa 0,0 l/m 0,00 h 0,00 h 0 W/m 0,3 km/h (0 Bft) 96,79 %
25.11.2018 04:00 2,7 C 2,2 C 2,2 C 98 % 1009,0 hPa 0,0 l/m 0,00 h 0,00 h 0 W/m 2,5 km/h (1 Bft) 98,72 %
25.11.2018 05:00 2,6 C 2,2 C 2,2 C 98 % 1009,1 hPa 0,0 l/m 0,00 h 0,00 h 0 W/m 0,0 km/h (0 Bft) 96,58 %
25.11.2018 06:00 2,6 C 2,2 C 2,2 C 98 % 1008,9 hPa 0,0 l/m 0,00 h 0,00 h 0 W/m 0,0 km/h (0 Bft) 97,60 %
25.11.2018 07:00 2,5 C 2,2 C 2,2 C 98 % 1008,9 hPa 0,0 l/m 0,00 h 0,00 h 0 W/m 0,0 km/h (0 Bft) 97,36 %
25.11.2018 08:00 2,6 C 2,2 C 2,2 C 99 % 1009,0 hPa 0,0 l/m 0,00 h 0,00 h 7 W/m 0,0 km/h (0 Bft) 97,22 %
25.11.2018 09:00 2,9 C 2,7 C 2,6 C 99 % 1009,0 hPa 0,0 l/m 0,00 h 0,00 h 22 W/m 0,3 km/h (0 Bft) 96,77 %
25.11.2018 10:00 3,3 C 3,0 C 2,8 C 99 % 1008,9 hPa 0,0 l/m 0,00 h 0,00 h 31 W/m 4,3 km/h (1 Bft) 95,16 %
25.11.2018 11:00 3,4 C 3,2 C 3,0 C 99 % 1008,7 hPa 0,0 l/m 0,00 h 0,00 h 32 W/m 4,5 km/h (1 Bft) 98,93 %
25.11.2018 12:00 3,6 C 3,7 C 3,3 C 99 % 1008,5 hPa 0,0 l/m 0,00 h 0,00 h 55 W/m 5,5 km/h (1 Bft) 98,09 %
25.11.2018 13:00 4,0 C 3,9 C 3,6 C 99 % 1008,5 hPa 0,0 l/m 0,00 h 0,00 h 45 W/m 5,0 km/h (1 Bft) 94,90 %
25.11.2018 14:00 3,9 C 3,4 C 3,3 C 99 % 1008,0 hPa 0,0 l/m 0,00 h 0,00 h 20 W/m 6,9 km/h (2 Bft) 98,83 %
25.11.2018 15:00 3,8 C 3,3 C 3,3 C 99 % 1007,7 hPa 0,0 l/m 0,00 h 0,00 h 15 W/m 6,6 km/h (2 Bft) 97,85 %
25.11.2018 16:00 3,7 C 3,3 C 3,2 C 99 % 1007,7 hPa 0,0 l/m 0,00 h 0,00 h 5 W/m 7,6 km/h (2 Bft) 95,23 %
25.11.2018 17:00 3,6 C 3,2 C 2,9 C 99 % 1007,5 hPa 0,0 l/m 0,00 h 0,00 h 0 W/m 7,9 km/h (2 Bft) 99,15 %
25.11.2018 18:00 3,5 C 3,2 C 2,8 C 99 % 1007,6 hPa 0,0 l/m 0,00 h 0,00 h 0 W/m 6,5 km/h (2 Bft) 97,31 %
25.11.2018 19:00 3,5 C 3,0 C 2,8 C 99 % 1007,6 hPa 0,0 l/m 0,00 h 0,00 h 0 W/m 10,6 km/h (2 Bft) 96,22 %
25.11.2018 20:00 3,6 C 3,2 C 2,8 C 99 % 1007,5 hPa 0,0 l/m 0,00 h 0,00 h 0 W/m 8,5 km/h (2 Bft) 97,93 %
25.11.2018 21:00 3,7 C 3,3 C 3,1 C 99 % 1007,5 hPa 0,0 l/m 0,00 h 0,00 h 0 W/m 7,3 km/h (2 Bft) 98,15 %
25.11.2018 22:00 3,9 C 3,4 C 3,3 C 99 % 1007,5 hPa 0,0 l/m 0,00 h 0,00 h 0 W/m 6,6 km/h (2 Bft) 97,15 %
25.11.2018 23:00 4,2 C 3,9 C 3,3 C 99 % 1007,6 hPa 0,0 l/m 0,00 h 0,00 h 0 W/m 5,5 km/h (1 Bft) 97,01 %
Min-Datum _ 21.11.18 21.11.18 21.11.18 20.11.18 20.11.18 - - - - 19.11.18 25.11.18
_ Min-Zeit 08:02 07:36 07:26 13:00 15:36 - - - - 01:28 09:34
Minimum _ -1,1 C -2,2 C -1,7 C 74 % 1005,3 hPa - - - - 0,0 km/h (0 Bft) 50,00 %
Max-Datum _ 23.11.18 23.11.18 19.11.18 25.11.18 19.11.18 24.11.18 19.11.18 19.11.18 19.11.18 19.11.18 19.11.18
_ Max-Zeit 14:24 14:18 12:38 08:10 00:00 11:14 12:08 12:08 12:22 09:18 00:56
Maximum _ 9,7 C 14,4 C 7,2 C 99 % 1023,2 hPa 0,8 l/m 0,07 h 0,07 h 470 W/m 41,8 km/h
W-NW (6 Bft)
100,00 %
Durchschnitt _ 3,4 C 3,1 C 2,4 C 89 % 1012,5 hPa #4,0 l/m #11:52 h #6:44 h 73 W/m 9,0 km/h (2 Bft) 97,38 %
© 2018 W. Hausmann